sensor_id;sensor_type;location;lat;lon;timestamp;P1;durP1;ratioP1;P2;durP2;ratioP2
7985;SDS011;4038;42.612;23.066;2023-04-24T00:01:57;29.63;;;26.77;;
7985;SDS011;4038;42.612;23.066;2023-04-24T00:04:23;29.42;;;26.42;;
7985;SDS011;4038;42.612;23.066;2023-04-24T00:06:51;26.80;;;24.63;;
7985;SDS011;4038;42.612;23.066;2023-04-24T00:09:18;28.48;;;26.38;;
7985;SDS011;4038;42.612;23.066;2023-04-24T00:11:44;29.40;;;26.48;;
7985;SDS011;4038;42.612;23.066;2023-04-24T00:14:10;27.10;;;24.83;;
7985;SDS011;4038;42.612;23.066;2023-04-24T00:16:35;28.00;;;25.58;;
7985;SDS011;4038;42.612;23.066;2023-04-24T00:19:01;27.67;;;25.38;;
7985;SDS011;4038;42.612;23.066;2023-04-24T00:21:26;27.13;;;24.92;;
7985;SDS011;4038;42.612;23.066;2023-04-24T00:23:52;25.77;;;23.65;;
7985;SDS011;4038;42.612;23.066;2023-04-24T00:26:17;25.42;;;23.55;;
7985;SDS011;4038;42.612;23.066;2023-04-24T00:28:43;26.15;;;24.35;;
7985;SDS011;4038;42.612;23.066;2023-04-24T00:31:08;26.08;;;24.27;;
7985;SDS011;4038;42.612;23.066;2023-04-24T00:33:33;25.80;;;23.77;;
7985;SDS011;4038;42.612;23.066;2023-04-24T00:35:59;26.20;;;24.30;;
7985;SDS011;4038;42.612;23.066;2023-04-24T00:38:24;26.20;;;24.38;;
7985;SDS011;4038;42.612;23.066;2023-04-24T00:40:49;26.05;;;24.23;;
7985;SDS011;4038;42.612;23.066;2023-04-24T00:43:15;25.27;;;23.25;;
7985;SDS011;4038;42.612;23.066;2023-04-24T00:45:40;26.42;;;24.27;;
7985;SDS011;4038;42.612;23.066;2023-04-24T00:48:06;28.75;;;25.88;;
7985;SDS011;4038;42.612;23.066;2023-04-24T00:50:31;34.88;;;29.48;;
7985;SDS011;4038;42.612;23.066;2023-04-24T00:52:57;29.15;;;26.25;;
7985;SDS011;4038;42.612;23.066;2023-04-24T00:55:22;36.10;;;27.15;;
7985;SDS011;4038;42.612;23.066;2023-04-24T00:57:49;31.08;;;27.52;;
7985;SDS011;4038;42.612;23.066;2023-04-24T01:00:15;39.78;;;29.33;;
7985;SDS011;4038;42.612;23.066;2023-04-24T01:02:41;27.60;;;25.05;;
7985;SDS011;4038;42.612;23.066;2023-04-24T01:05:13;37.20;;;28.20;;
7985;SDS011;4038;42.612;23.066;2023-04-24T01:07:40;32.80;;;27.48;;
7985;SDS011;4038;42.612;23.066;2023-04-24T01:10:09;33.60;;;27.45;;
7985;SDS011;4038;42.612;23.066;2023-04-24T01:12:34;48.92;;;30.42;;
7985;SDS011;4038;42.612;23.066;2023-04-24T01:14:59;43.05;;;30.00;;
7985;SDS011;4038;42.612;23.066;2023-04-24T01:17:25;30.20;;;26.05;;
7985;SDS011;4038;42.612;23.066;2023-04-24T01:19:50;38.60;;;28.40;;
7985;SDS011;4038;42.612;23.066;2023-04-24T01:22:18;32.85;;;27.40;;
7985;SDS011;4038;42.612;23.066;2023-04-24T01:24:45;30.95;;;27.63;;
7985;SDS011;4038;42.612;23.066;2023-04-24T01:27:11;30.45;;;26.85;;
7985;SDS011;4038;42.612;23.066;2023-04-24T01:29:36;29.45;;;26.52;;
7985;SDS011;4038;42.612;23.066;2023-04-24T01:32:02;31.40;;;26.30;;
7985;SDS011;4038;42.612;23.066;2023-04-24T01:34:28;32.00;;;28.17;;
7985;SDS011;4038;42.612;23.066;2023-04-24T01:36:53;37.88;;;27.98;;
7985;SDS011;4038;42.612;23.066;2023-04-24T01:39:18;29.80;;;24.63;;
7985;SDS011;4038;42.612;23.066;2023-04-24T01:41:45;31.52;;;25.30;;
7985;SDS011;4038;42.612;23.066;2023-04-24T01:44:10;26.40;;;24.38;;
7985;SDS011;4038;42.612;23.066;2023-04-24T01:46:36;25.05;;;23.30;;
7985;SDS011;4038;42.612;23.066;2023-04-24T01:49:01;25.08;;;23.27;;
7985;SDS011;4038;42.612;23.066;2023-04-24T01:51:27;26.33;;;24.20;;
7985;SDS011;4038;42.612;23.066;2023-04-24T01:53:52;25.75;;;23.77;;
7985;SDS011;4038;42.612;23.066;2023-04-24T01:56:18;25.83;;;24.02;;
7985;SDS011;4038;42.612;23.066;2023-04-24T01:58:45;25.35;;;23.45;;
7985;SDS011;4038;42.612;23.066;2023-04-24T02:01:14;26.08;;;24.05;;
7985;SDS011;4038;42.612;23.066;2023-04-24T02:03:40;25.00;;;23.20;;
7985;SDS011;4038;42.612;23.066;2023-04-24T02:06:05;25.20;;;23.23;;
7985;SDS011;4038;42.612;23.066;2023-04-24T02:08:30;26.30;;;24.00;;
7985;SDS011;4038;42.612;23.066;2023-04-24T02:10:56;26.75;;;24.90;;
7985;SDS011;4038;42.612;23.066;2023-04-24T02:13:21;26.27;;;24.27;;
7985;SDS011;4038;42.612;23.066;2023-04-24T02:15:46;26.58;;;24.38;;
7985;SDS011;4038;42.612;23.066;2023-04-24T02:18:11;25.65;;;23.60;;
7985;SDS011;4038;42.612;23.066;2023-04-24T02:20:37;25.48;;;23.58;;
7985;SDS011;4038;42.612;23.066;2023-04-24T02:23:03;31.38;;;24.73;;
7985;SDS011;4038;42.612;23.066;2023-04-24T02:25:28;42.50;;;24.80;;
7985;SDS011;4038;42.612;23.066;2023-04-24T02:27:53;26.80;;;24.02;;
7985;SDS011;4038;42.612;23.066;2023-04-24T02:30:18;38.35;;;25.25;;
7985;SDS011;4038;42.612;23.066;2023-04-24T02:32:44;27.17;;;24.88;;
7985;SDS011;4038;42.612;23.066;2023-04-24T02:35:10;28.35;;;25.77;;
7985;SDS011;4038;42.612;23.066;2023-04-24T02:37:35;26.88;;;24.33;;
7985;SDS011;4038;42.612;23.066;2023-04-24T02:40:00;25.38;;;23.27;;
7985;SDS011;4038;42.612;23.066;2023-04-24T02:42:25;25.95;;;23.52;;
7985;SDS011;4038;42.612;23.066;2023-04-24T02:44:51;26.15;;;23.83;;
7985;SDS011;4038;42.612;23.066;2023-04-24T02:47:16;25.50;;;22.77;;
7985;SDS011;4038;42.612;23.066;2023-04-24T02:49:41;27.30;;;25.10;;
7985;SDS011;4038;42.612;23.066;2023-04-24T02:52:07;26.48;;;24.13;;
7985;SDS011;4038;42.612;23.066;2023-04-24T02:54:32;25.40;;;23.50;;
7985;SDS011;4038;42.612;23.066;2023-04-24T02:56:57;26.20;;;24.20;;
7985;SDS011;4038;42.612;23.066;2023-04-24T02:59:22;24.83;;;22.70;;
7985;SDS011;4038;42.612;23.066;2023-04-24T03:01:48;24.92;;;22.83;;
7985;SDS011;4038;42.612;23.066;2023-04-24T03:04:13;29.10;;;23.33;;
7985;SDS011;4038;42.612;23.066;2023-04-24T03:06:38;26.73;;;24.40;;
7985;SDS011;4038;42.612;23.066;2023-04-24T03:09:04;25.30;;;23.08;;
7985;SDS011;4038;42.612;23.066;2023-04-24T03:11:29;24.98;;;22.70;;
7985;SDS011;4038;42.612;23.066;2023-04-24T03:13:55;26.03;;;23.53;;
7985;SDS011;4038;42.612;23.066;2023-04-24T03:16:20;26.23;;;23.98;;
7985;SDS011;4038;42.612;23.066;2023-04-24T03:18:45;25.67;;;23.70;;
7985;SDS011;4038;42.612;23.066;2023-04-24T03:21:11;24.48;;;22.67;;
7985;SDS011;4038;42.612;23.066;2023-04-24T03:23:36;25.38;;;23.67;;
7985;SDS011;4038;42.612;23.066;2023-04-24T03:26:01;26.60;;;24.40;;
7985;SDS011;4038;42.612;23.066;2023-04-24T03:28:27;24.90;;;23.10;;
7985;SDS011;4038;42.612;23.066;2023-04-24T03:30:52;24.38;;;22.67;;
7985;SDS011;4038;42.612;23.066;2023-04-24T03:33:17;25.90;;;23.95;;
7985;SDS011;4038;42.612;23.066;2023-04-24T03:35:43;25.58;;;23.67;;
7985;SDS011;4038;42.612;23.066;2023-04-24T03:38:08;26.30;;;24.38;;
7985;SDS011;4038;42.612;23.066;2023-04-24T03:40:33;24.83;;;23.10;;
7985;SDS011;4038;42.612;23.066;2023-04-24T03:42:58;25.92;;;23.73;;
7985;SDS011;4038;42.612;23.066;2023-04-24T03:45:24;25.20;;;23.08;;
7985;SDS011;4038;42.612;23.066;2023-04-24T03:47:49;25.95;;;23.85;;
7985;SDS011;4038;42.612;23.066;2023-04-24T03:50:15;25.67;;;23.65;;
7985;SDS011;4038;42.612;23.066;2023-04-24T03:52:40;25.63;;;23.83;;
7985;SDS011;4038;42.612;23.066;2023-04-24T03:55:06;25.02;;;22.92;;
7985;SDS011;4038;42.612;23.066;2023-04-24T03:57:31;25.52;;;23.20;;
7985;SDS011;4038;42.612;23.066;2023-04-24T03:59:56;24.40;;;22.30;;
7985;SDS011;4038;42.612;23.066;2023-04-24T04:02:22;24.02;;;22.17;;
7985;SDS011;4038;42.612;23.066;2023-04-24T04:04:47;25.20;;;23.10;;
7985;SDS011;4038;42.612;23.066;2023-04-24T04:07:12;23.92;;;22.17;;
7985;SDS011;4038;42.612;23.066;2023-04-24T04:09:38;25.50;;;23.25;;
7985;SDS011;4038;42.612;23.066;2023-04-24T04:12:03;25.60;;;23.33;;
7985;SDS011;4038;42.612;23.066;2023-04-24T04:14:28;25.95;;;23.75;;
7985;SDS011;4038;42.612;23.066;2023-04-24T04:16:53;26.95;;;24.38;;
7985;SDS011;4038;42.612;23.066;2023-04-24T04:19:19;26.85;;;24.15;;
7985;SDS011;4038;42.612;23.066;2023-04-24T04:21:44;24.65;;;22.55;;
7985;SDS011;4038;42.612;23.066;2023-04-24T04:24:10;26.75;;;24.50;;
7985;SDS011;4038;42.612;23.066;2023-04-24T04:26:36;26.40;;;24.23;;
7985;SDS011;4038;42.612;23.066;2023-04-24T04:29:02;25.70;;;23.67;;
7985;SDS011;4038;42.612;23.066;2023-04-24T04:31:28;25.42;;;23.00;;
7985;SDS011;4038;42.612;23.066;2023-04-24T04:33:53;26.48;;;23.75;;
7985;SDS011;4038;42.612;23.066;2023-04-24T04:36:19;27.27;;;23.90;;
7985;SDS011;4038;42.612;23.066;2023-04-24T04:38:44;26.95;;;24.48;;
7985;SDS011;4038;42.612;23.066;2023-04-24T04:41:09;27.65;;;24.95;;
7985;SDS011;4038;42.612;23.066;2023-04-24T04:43:35;40.90;;;27.48;;
7985;SDS011;4038;42.612;23.066;2023-04-24T04:46:01;33.85;;;25.15;;
7985;SDS011;4038;42.612;23.066;2023-04-24T04:48:28;31.88;;;25.90;;
7985;SDS011;4038;42.612;23.066;2023-04-24T04:50:53;26.33;;;23.88;;
7985;SDS011;4038;42.612;23.066;2023-04-24T04:53:19;25.15;;;22.98;;
7985;SDS011;4038;42.612;23.066;2023-04-24T04:55:44;26.52;;;24.38;;
7985;SDS011;4038;42.612;23.066;2023-04-24T04:58:09;26.42;;;24.35;;
7985;SDS011;4038;42.612;23.066;2023-04-24T05:00:35;26.30;;;24.20;;
7985;SDS011;4038;42.612;23.066;2023-04-24T05:03:02;26.23;;;23.95;;
7985;SDS011;4038;42.612;23.066;2023-04-24T05:05:28;28.65;;;25.08;;
7985;SDS011;4038;42.612;23.066;2023-04-24T05:07:53;28.75;;;24.60;;
7985;SDS011;4038;42.612;23.066;2023-04-24T05:10:18;34.90;;;25.98;;
7985;SDS011;4038;42.612;23.066;2023-04-24T05:12:43;44.40;;;28.70;;
7985;SDS011;4038;42.612;23.066;2023-04-24T05:15:09;29.88;;;26.25;;
7985;SDS011;4038;42.612;23.066;2023-04-24T05:17:34;30.05;;;25.83;;
7985;SDS011;4038;42.612;23.066;2023-04-24T05:20:00;25.42;;;23.33;;
7985;SDS011;4038;42.612;23.066;2023-04-24T05:22:25;25.60;;;23.63;;
7985;SDS011;4038;42.612;23.066;2023-04-24T05:24:50;25.30;;;23.35;;
7985;SDS011;4038;42.612;23.066;2023-04-24T05:27:16;26.33;;;24.15;;
7985;SDS011;4038;42.612;23.066;2023-04-24T05:29:41;27.00;;;24.83;;
7985;SDS011;4038;42.612;23.066;2023-04-24T05:32:06;25.08;;;23.15;;
7985;SDS011;4038;42.612;23.066;2023-04-24T05:34:32;26.17;;;24.10;;
7985;SDS011;4038;42.612;23.066;2023-04-24T05:36:57;26.42;;;23.90;;
7985;SDS011;4038;42.612;23.066;2023-04-24T05:39:22;25.92;;;23.73;;
7985;SDS011;4038;42.612;23.066;2023-04-24T05:41:49;25.25;;;23.17;;
7985;SDS011;4038;42.612;23.066;2023-04-24T05:44:15;33.13;;;26.05;;
7985;SDS011;4038;42.612;23.066;2023-04-24T05:46:40;31.35;;;26.40;;
7985;SDS011;4038;42.612;23.066;2023-04-24T05:49:05;29.67;;;26.75;;
7985;SDS011;4038;42.612;23.066;2023-04-24T05:51:31;39.35;;;27.27;;
7985;SDS011;4038;42.612;23.066;2023-04-24T05:53:56;36.63;;;26.77;;
7985;SDS011;4038;42.612;23.066;2023-04-24T05:56:21;43.65;;;28.35;;
7985;SDS011;4038;42.612;23.066;2023-04-24T05:58:47;61.88;;;32.13;;
7985;SDS011;4038;42.612;23.066;2023-04-24T06:01:13;65.75;;;33.55;;
7985;SDS011;4038;42.612;23.066;2023-04-24T06:03:39;54.40;;;30.05;;
7985;SDS011;4038;42.612;23.066;2023-04-24T06:06:05;26.67;;;24.30;;
7985;SDS011;4038;42.612;23.066;2023-04-24T06:08:31;26.15;;;23.73;;
7985;SDS011;4038;42.612;23.066;2023-04-24T06:10:56;27.00;;;24.45;;
7985;SDS011;4038;42.612;23.066;2023-04-24T06:13:21;26.52;;;24.42;;
7985;SDS011;4038;42.612;23.066;2023-04-24T06:15:46;26.85;;;23.83;;
7985;SDS011;4038;42.612;23.066;2023-04-24T06:18:12;26.85;;;24.58;;
7985;SDS011;4038;42.612;23.066;2023-04-24T06:20:37;25.42;;;23.20;;
7985;SDS011;4038;42.612;23.066;2023-04-24T06:23:02;26.38;;;24.48;;
7985;SDS011;4038;42.612;23.066;2023-04-24T06:25:28;25.33;;;23.45;;
7985;SDS011;4038;42.612;23.066;2023-04-24T06:27:53;26.58;;;24.42;;
7985;SDS011;4038;42.612;23.066;2023-04-24T06:30:19;26.25;;;24.35;;
7985;SDS011;4038;42.612;23.066;2023-04-24T06:32:44;26.55;;;24.33;;
7985;SDS011;4038;42.612;23.066;2023-04-24T06:35:10;27.77;;;25.63;;
7985;SDS011;4038;42.612;23.066;2023-04-24T06:37:36;27.73;;;25.30;;
7985;SDS011;4038;42.612;23.066;2023-04-24T06:40:01;25.25;;;23.13;;
7985;SDS011;4038;42.612;23.066;2023-04-24T06:42:27;27.38;;;24.92;;
7985;SDS011;4038;42.612;23.066;2023-04-24T06:44:52;26.40;;;23.65;;
7985;SDS011;4038;42.612;23.066;2023-04-24T06:47:18;26.58;;;24.00;;
7985;SDS011;4038;42.612;23.066;2023-04-24T06:49:43;25.15;;;23.25;;
7985;SDS011;4038;42.612;23.066;2023-04-24T06:52:08;26.25;;;23.83;;
7985;SDS011;4038;42.612;23.066;2023-04-24T06:54:34;25.65;;;23.10;;
7985;SDS011;4038;42.612;23.066;2023-04-24T06:56:59;25.35;;;23.48;;
7985;SDS011;4038;42.612;23.066;2023-04-24T06:59:26;25.30;;;23.63;;
7985;SDS011;4038;42.612;23.066;2023-04-24T07:01:51;25.05;;;23.15;;
7985;SDS011;4038;42.612;23.066;2023-04-24T07:04:17;24.63;;;22.77;;
7985;SDS011;4038;42.612;23.066;2023-04-24T07:06:42;24.58;;;22.88;;
7985;SDS011;4038;42.612;23.066;2023-04-24T07:09:07;24.90;;;22.80;;
7985;SDS011;4038;42.612;23.066;2023-04-24T07:11:34;24.30;;;22.60;;
7985;SDS011;4038;42.612;23.066;2023-04-24T07:14:00;23.80;;;22.13;;
7985;SDS011;4038;42.612;23.066;2023-04-24T07:16:25;25.73;;;23.83;;
7985;SDS011;4038;42.612;23.066;2023-04-24T07:18:51;25.80;;;23.90;;
7985;SDS011;4038;42.612;23.066;2023-04-24T07:21:16;76.43;;;33.13;;
7985;SDS011;4038;42.612;23.066;2023-04-24T07:23:41;26.20;;;23.95;;
7985;SDS011;4038;42.612;23.066;2023-04-24T07:26:07;26.02;;;24.13;;
7985;SDS011;4038;42.612;23.066;2023-04-24T07:28:32;25.13;;;23.02;;
7985;SDS011;4038;42.612;23.066;2023-04-24T07:30:58;29.58;;;24.83;;
7985;SDS011;4038;42.612;23.066;2023-04-24T07:33:25;26.75;;;24.52;;
7985;SDS011;4038;42.612;23.066;2023-04-24T07:35:50;51.17;;;28.88;;
7985;SDS011;4038;42.612;23.066;2023-04-24T07:38:15;24.35;;;22.42;;
7985;SDS011;4038;42.612;23.066;2023-04-24T07:40:41;24.00;;;22.15;;
7985;SDS011;4038;42.612;23.066;2023-04-24T07:43:06;25.50;;;23.40;;
7985;SDS011;4038;42.612;23.066;2023-04-24T07:45:31;24.40;;;22.60;;
7985;SDS011;4038;42.612;23.066;2023-04-24T07:48:01;23.40;;;21.83;;
7985;SDS011;4038;42.612;23.066;2023-04-24T07:50:26;24.13;;;22.52;;
7985;SDS011;4038;42.612;23.066;2023-04-24T07:52:51;24.33;;;22.45;;
7985;SDS011;4038;42.612;23.066;2023-04-24T07:55:16;23.73;;;22.00;;
7985;SDS011;4038;42.612;23.066;2023-04-24T07:57:42;23.63;;;22.02;;
7985;SDS011;4038;42.612;23.066;2023-04-24T08:00:07;25.02;;;22.70;;
7985;SDS011;4038;42.612;23.066;2023-04-24T08:02:33;24.85;;;22.85;;
7985;SDS011;4038;42.612;23.066;2023-04-24T08:04:58;22.42;;;20.92;;
7985;SDS011;4038;42.612;23.066;2023-04-24T08:07:23;25.98;;;24.08;;
7985;SDS011;4038;42.612;23.066;2023-04-24T08:09:48;24.27;;;22.60;;
7985;SDS011;4038;42.612;23.066;2023-04-24T08:12:14;24.48;;;22.65;;
7985;SDS011;4038;42.612;23.066;2023-04-24T08:14:39;24.63;;;22.75;;
7985;SDS011;4038;42.612;23.066;2023-04-24T08:17:05;24.50;;;22.65;;
7985;SDS011;4038;42.612;23.066;2023-04-24T08:19:30;25.08;;;22.80;;
7985;SDS011;4038;42.612;23.066;2023-04-24T08:21:55;24.50;;;22.80;;
7985;SDS011;4038;42.612;23.066;2023-04-24T08:24:21;25.63;;;23.60;;
7985;SDS011;4038;42.612;23.066;2023-04-24T08:26:47;25.30;;;23.55;;
7985;SDS011;4038;42.612;23.066;2023-04-24T08:29:15;24.92;;;23.05;;
7985;SDS011;4038;42.612;23.066;2023-04-24T08:31:40;25.70;;;23.92;;
7985;SDS011;4038;42.612;23.066;2023-04-24T08:34:06;25.05;;;23.10;;
7985;SDS011;4038;42.612;23.066;2023-04-24T08:36:31;23.17;;;21.58;;
7985;SDS011;4038;42.612;23.066;2023-04-24T08:38:59;23.35;;;21.55;;
7985;SDS011;4038;42.612;23.066;2023-04-24T08:41:24;26.30;;;24.15;;
7985;SDS011;4038;42.612;23.066;2023-04-24T08:43:51;24.58;;;22.25;;
7985;SDS011;4038;42.612;23.066;2023-04-24T08:46:16;24.85;;;22.90;;
7985;SDS011;4038;42.612;23.066;2023-04-24T08:48:43;24.17;;;22.38;;
7985;SDS011;4038;42.612;23.066;2023-04-24T08:51:09;23.58;;;21.50;;
7985;SDS011;4038;42.612;23.066;2023-04-24T08:53:34;22.60;;;21.08;;
7985;SDS011;4038;42.612;23.066;2023-04-24T08:55:59;23.60;;;21.70;;
7985;SDS011;4038;42.612;23.066;2023-04-24T08:58:26;22.95;;;21.45;;
7985;SDS011;4038;42.612;23.066;2023-04-24T09:00:53;23.13;;;21.38;;
7985;SDS011;4038;42.612;23.066;2023-04-24T09:03:19;22.85;;;21.08;;
7985;SDS011;4038;42.612;23.066;2023-04-24T09:05:46;23.88;;;22.17;;
7985;SDS011;4038;42.612;23.066;2023-04-24T09:08:12;23.63;;;22.02;;
7985;SDS011;4038;42.612;23.066;2023-04-24T09:10:38;23.38;;;21.58;;
7985;SDS011;4038;42.612;23.066;2023-04-24T09:13:04;24.50;;;22.65;;
7985;SDS011;4038;42.612;23.066;2023-04-24T09:15:29;24.58;;;22.80;;
7985;SDS011;4038;42.612;23.066;2023-04-24T09:17:55;24.15;;;22.35;;
7985;SDS011;4038;42.612;23.066;2023-04-24T09:20:21;24.23;;;22.55;;
7985;SDS011;4038;42.612;23.066;2023-04-24T09:22:46;23.92;;;22.30;;
7985;SDS011;4038;42.612;23.066;2023-04-24T09:25:12;23.48;;;21.88;;
7985;SDS011;4038;42.612;23.066;2023-04-24T09:27:41;25.23;;;23.52;;
7985;SDS011;4038;42.612;23.066;2023-04-24T09:30:06;24.27;;;22.50;;
7985;SDS011;4038;42.612;23.066;2023-04-24T09:32:32;23.98;;;22.20;;
7985;SDS011;4038;42.612;23.066;2023-04-24T09:35:10;23.95;;;22.35;;
7985;SDS011;4038;42.612;23.066;2023-04-24T09:37:40;24.63;;;22.92;;
7985;SDS011;4038;42.612;23.066;2023-04-24T09:40:10;23.85;;;22.23;;
7985;SDS011;4038;42.612;23.066;2023-04-24T09:42:39;24.60;;;22.77;;
7985;SDS011;4038;42.612;23.066;2023-04-24T09:45:08;25.13;;;23.35;;
7985;SDS011;4038;42.612;23.066;2023-04-24T09:47:40;23.83;;;22.02;;
7985;SDS011;4038;42.612;23.066;2023-04-24T09:50:09;23.27;;;21.67;;
7985;SDS011;4038;42.612;23.066;2023-04-24T09:52:34;23.15;;;21.50;;
7985;SDS011;4038;42.612;23.066;2023-04-24T09:55:00;22.88;;;21.38;;
7985;SDS011;4038;42.612;23.066;2023-04-24T09:57:25;23.40;;;21.85;;
7985;SDS011;4038;42.612;23.066;2023-04-24T09:59:52;23.45;;;21.83;;
7985;SDS011;4038;42.612;23.066;2023-04-24T10:02:18;23.15;;;21.63;;
7985;SDS011;4038;42.612;23.066;2023-04-24T10:04:53;23.23;;;21.70;;
7985;SDS011;4038;42.612;23.066;2023-04-24T10:07:20;23.88;;;22.30;;
7985;SDS011;4038;42.612;23.066;2023-04-24T10:09:45;23.73;;;22.02;;
7985;SDS011;4038;42.612;23.066;2023-04-24T10:12:11;23.40;;;21.70;;
7985;SDS011;4038;42.612;23.066;2023-04-24T10:14:37;25.30;;;23.63;;
7985;SDS011;4038;42.612;23.066;2023-04-24T10:17:02;27.00;;;24.73;;
7985;SDS011;4038;42.612;23.066;2023-04-24T10:19:28;26.35;;;24.65;;
7985;SDS011;4038;42.612;23.066;2023-04-24T10:21:54;27.77;;;25.77;;
7985;SDS011;4038;42.612;23.066;2023-04-24T10:24:21;25.20;;;23.60;;
7985;SDS011;4038;42.612;23.066;2023-04-24T10:26:46;25.88;;;24.08;;
7985;SDS011;4038;42.612;23.066;2023-04-24T10:29:13;28.25;;;26.00;;
7985;SDS011;4038;42.612;23.066;2023-04-24T10:31:40;26.83;;;24.92;;
7985;SDS011;4038;42.612;23.066;2023-04-24T10:34:05;26.58;;;24.45;;
7985;SDS011;4038;42.612;23.066;2023-04-24T10:36:31;26.52;;;24.45;;
7985;SDS011;4038;42.612;23.066;2023-04-24T10:38:58;24.90;;;22.90;;
7985;SDS011;4038;42.612;23.066;2023-04-24T10:41:25;25.83;;;24.13;;
7985;SDS011;4038;42.612;23.066;2023-04-24T10:44:10;26.77;;;24.98;;
7985;SDS011;4038;42.612;23.066;2023-04-24T10:46:36;26.35;;;24.65;;
7985;SDS011;4038;42.612;23.066;2023-04-24T10:49:07;26.35;;;24.70;;
7985;SDS011;4038;42.612;23.066;2023-04-24T10:51:49;25.85;;;24.15;;
7985;SDS011;4038;42.612;23.066;2023-04-24T10:59:47;24.45;;;22.85;;
7985;SDS011;4038;42.612;23.066;2023-04-24T11:02:16;25.35;;;23.40;;
7985;SDS011;4038;42.612;23.066;2023-04-24T11:04:42;24.98;;;23.17;;
7985;SDS011;4038;42.612;23.066;2023-04-24T11:07:08;25.05;;;23.25;;
7985;SDS011;4038;42.612;23.066;2023-04-24T11:09:34;25.15;;;23.25;;
7985;SDS011;4038;42.612;23.066;2023-04-24T11:12:08;25.27;;;23.52;;
7985;SDS011;4038;42.612;23.066;2023-04-24T11:17:34;25.55;;;23.92;;
7985;SDS011;4038;42.612;23.066;2023-04-24T11:20:03;25.20;;;23.60;;
7985;SDS011;4038;42.612;23.066;2023-04-24T11:22:32;23.98;;;22.15;;
7985;SDS011;4038;42.612;23.066;2023-04-24T11:24:59;30.52;;;28.13;;
7985;SDS011;4038;42.612;23.066;2023-04-24T11:27:27;32.67;;;30.20;;
7985;SDS011;4038;42.612;23.066;2023-04-24T11:34:50;30.40;;;27.80;;
7985;SDS011;4038;42.612;23.066;2023-04-24T11:37:16;72.88;;;33.15;;
7985;SDS011;4038;42.612;23.066;2023-04-24T11:39:42;31.40;;;26.58;;
7985;SDS011;4038;42.612;23.066;2023-04-24T11:42:07;26.90;;;24.23;;
7985;SDS011;4038;42.612;23.066;2023-04-24T11:44:34;26.77;;;24.27;;
7985;SDS011;4038;42.612;23.066;2023-04-24T11:46:59;24.60;;;22.90;;
7985;SDS011;4038;42.612;23.066;2023-04-24T11:49:25;26.05;;;24.00;;
7985;SDS011;4038;42.612;23.066;2023-04-24T11:51:54;35.67;;;32.20;;
7985;SDS011;4038;42.612;23.066;2023-04-24T11:54:19;39.47;;;35.92;;
7985;SDS011;4038;42.612;23.066;2023-04-24T11:56:46;39.28;;;35.80;;
7985;SDS011;4038;42.612;23.066;2023-04-24T11:59:11;35.58;;;32.60;;
7985;SDS011;4038;42.612;23.066;2023-04-24T12:01:43;41.85;;;37.92;;
7985;SDS011;4038;42.612;23.066;2023-04-24T12:04:09;39.90;;;35.78;;
7985;SDS011;4038;42.612;23.066;2023-04-24T12:06:35;33.17;;;30.23;;
7985;SDS011;4038;42.612;23.066;2023-04-24T12:09:00;27.50;;;25.40;;
7985;SDS011;4038;42.612;23.066;2023-04-24T12:11:25;25.08;;;23.38;;
7985;SDS011;4038;42.612;23.066;2023-04-24T12:13:50;24.42;;;22.52;;
7985;SDS011;4038;42.612;23.066;2023-04-24T12:16:16;25.90;;;23.90;;
7985;SDS011;4038;42.612;23.066;2023-04-24T12:18:44;26.33;;;24.25;;
7985;SDS011;4038;42.612;23.066;2023-04-24T12:21:20;27.30;;;25.05;;
7985;SDS011;4038;42.612;23.066;2023-04-24T12:23:46;26.55;;;24.60;;
7985;SDS011;4038;42.612;23.066;2023-04-24T12:26:12;26.65;;;24.70;;
7985;SDS011;4038;42.612;23.066;2023-04-24T12:28:38;25.75;;;23.92;;
7985;SDS011;4038;42.612;23.066;2023-04-24T12:31:03;26.85;;;24.73;;
7985;SDS011;4038;42.612;23.066;2023-04-24T12:33:31;27.65;;;25.13;;
7985;SDS011;4038;42.612;23.066;2023-04-24T12:35:57;44.58;;;29.25;;
7985;SDS011;4038;42.612;23.066;2023-04-24T12:38:23;29.67;;;26.55;;
7985;SDS011;4038;42.612;23.066;2023-04-24T12:41:01;29.05;;;26.30;;
7985;SDS011;4038;42.612;23.066;2023-04-24T12:43:26;28.15;;;26.15;;
7985;SDS011;4038;42.612;23.066;2023-04-24T12:45:52;26.52;;;24.55;;
7985;SDS011;4038;42.612;23.066;2023-04-24T12:48:17;27.65;;;25.45;;
7985;SDS011;4038;42.612;23.066;2023-04-24T12:50:42;29.33;;;26.60;;
7985;SDS011;4038;42.612;23.066;2023-04-24T12:53:08;28.80;;;26.25;;
7985;SDS011;4038;42.612;23.066;2023-04-24T12:55:34;50.55;;;31.33;;
7985;SDS011;4038;42.612;23.066;2023-04-24T12:57:59;28.83;;;26.42;;
7985;SDS011;4038;42.612;23.066;2023-04-24T13:00:24;67.22;;;33.20;;
7985;SDS011;4038;42.612;23.066;2023-04-24T13:02:49;28.35;;;25.95;;
7985;SDS011;4038;42.612;23.066;2023-04-24T13:05:15;29.13;;;26.65;;
7985;SDS011;4038;42.612;23.066;2023-04-24T13:07:40;27.75;;;25.55;;
7985;SDS011;4038;42.612;23.066;2023-04-24T13:10:06;27.30;;;24.60;;
7985;SDS011;4038;42.612;23.066;2023-04-24T13:12:31;32.95;;;25.60;;
7985;SDS011;4038;42.612;23.066;2023-04-24T13:14:57;31.50;;;28.65;;
7985;SDS011;4038;42.612;23.066;2023-04-24T13:17:22;29.38;;;27.02;;
7985;SDS011;4038;42.612;23.066;2023-04-24T13:19:49;24.95;;;22.95;;
7985;SDS011;4038;42.612;23.066;2023-04-24T13:22:15;25.58;;;23.67;;
7985;SDS011;4038;42.612;23.066;2023-04-24T13:24:40;25.33;;;23.52;;
7985;SDS011;4038;42.612;23.066;2023-04-24T13:27:06;36.30;;;28.23;;
7985;SDS011;4038;42.612;23.066;2023-04-24T13:29:32;25.17;;;22.98;;
7985;SDS011;4038;42.612;23.066;2023-04-24T13:31:57;30.63;;;27.30;;
7985;SDS011;4038;42.612;23.066;2023-04-24T13:34:23;25.10;;;23.10;;
7985;SDS011;4038;42.612;23.066;2023-04-24T13:36:49;25.48;;;23.05;;
7985;SDS011;4038;42.612;23.066;2023-04-24T13:39:15;25.27;;;23.38;;
7985;SDS011;4038;42.612;23.066;2023-04-24T13:41:40;26.02;;;23.45;;
7985;SDS011;4038;42.612;23.066;2023-04-24T13:44:06;24.52;;;22.73;;
7985;SDS011;4038;42.612;23.066;2023-04-24T13:46:31;24.70;;;23.02;;
7985;SDS011;4038;42.612;23.066;2023-04-24T13:48:57;25.42;;;23.92;;
7985;SDS011;4038;42.612;23.066;2023-04-24T13:51:23;24.85;;;23.05;;
7985;SDS011;4038;42.612;23.066;2023-04-24T13:53:48;25.17;;;23.38;;
7985;SDS011;4038;42.612;23.066;2023-04-24T13:56:13;24.08;;;22.48;;
7985;SDS011;4038;42.612;23.066;2023-04-24T13:58:39;25.15;;;23.10;;
7985;SDS011;4038;42.612;23.066;2023-04-24T14:01:04;24.88;;;23.17;;
7985;SDS011;4038;42.612;23.066;2023-04-24T14:03:29;23.65;;;21.95;;
7985;SDS011;4038;42.612;23.066;2023-04-24T14:05:55;23.88;;;21.52;;
7985;SDS011;4038;42.612;23.066;2023-04-24T14:08:20;24.85;;;23.15;;
7985;SDS011;4038;42.612;23.066;2023-04-24T14:10:46;24.10;;;22.17;;
7985;SDS011;4038;42.612;23.066;2023-04-24T14:13:11;24.90;;;23.10;;
7985;SDS011;4038;42.612;23.066;2023-04-24T14:15:36;24.80;;;22.83;;
7985;SDS011;4038;42.612;23.066;2023-04-24T14:18:02;24.10;;;22.50;;
7985;SDS011;4038;42.612;23.066;2023-04-24T14:20:28;23.98;;;22.27;;
7985;SDS011;4038;42.612;23.066;2023-04-24T14:22:53;24.75;;;22.95;;
7985;SDS011;4038;42.612;23.066;2023-04-24T14:25:18;26.30;;;24.60;;
7985;SDS011;4038;42.612;23.066;2023-04-24T14:27:44;25.27;;;23.50;;
7985;SDS011;4038;42.612;23.066;2023-04-24T14:30:09;24.50;;;22.83;;
7985;SDS011;4038;42.612;23.066;2023-04-24T14:32:34;24.27;;;22.58;;
7985;SDS011;4038;42.612;23.066;2023-04-24T14:35:01;25.17;;;23.38;;
7985;SDS011;4038;42.612;23.066;2023-04-24T14:37:26;23.88;;;22.08;;
7985;SDS011;4038;42.612;23.066;2023-04-24T14:39:51;24.55;;;22.92;;